Time;durP1;ratioP1;P1;durP2;ratioP2;P2;SDS_P1;SDS_P2;PMS_P1;PMS_P2;Temp;Humidity;BMP_temperature;BMP_pressure;BME280_temperature;BME280_humidity;BME280_pressure;Samples;Min_cycle;Max_cycle;Signal;HPM_P1;HPM_P2
2021/03/09 00:00:07;;;;;;;40.00;24.27;;;10.50;52.90;;;;;;2065420;28;20477;-62
2021/03/09 00:01:28;;;;;;;35.72;22.63;;;10.50;52.90;;;;;;2067486;28;20025;-61
2021/03/09 00:02:49;;;;;;;37.08;22.05;;;10.50;52.80;;;;;;2066355;28;20355;-60
2021/03/09 00:04:10;;;;;;;36.25;23.38;;;10.50;52.80;;;;;;2064299;28;20121;-60
2021/03/09 00:05:31;;;;;;;39.90;23.63;;;10.50;52.70;;;;;;2069151;28;20049;-60
2021/03/09 00:06:52;;;;;;;36.33;22.42;;;10.50;52.80;;;;;;2068356;28;20433;-60
2021/03/09 00:08:13;;;;;;;36.38;22.30;;;10.50;52.80;;;;;;2067886;28;20504;-59
2021/03/09 00:09:34;;;;;;;34.60;21.92;;;10.50;52.70;;;;;;2067898;28;20025;-60
2021/03/09 00:10:55;;;;;;;39.13;23.23;;;10.50;52.70;;;;;;2059335;28;20031;-60
2021/03/09 00:12:16;;;;;;;35.15;21.83;;;10.50;52.70;;;;;;2062728;28;20034;-60
2021/03/09 00:13:37;;;;;;;34.85;22.13;;;10.50;52.70;;;;;;2060402;28;20042;-60
2021/03/09 00:14:58;;;;;;;38.17;22.73;;;10.50;52.60;;;;;;2064475;28;20785;-60
2021/03/09 00:16:19;;;;;;;36.30;23.10;;;10.50;52.60;;;;;;2070461;28;20698;-60
2021/03/09 00:17:39;;;;;;;37.58;23.80;;;10.50;52.60;;;;;;2068306;28;20034;-60
2021/03/09 00:19:00;;;;;;;38.70;23.52;;;10.50;52.60;;;;;;2070714;28;20050;-61
2021/03/09 00:20:21;;;;;;;35.35;22.35;;;10.50;52.60;;;;;;2066274;28;20041;-60
2021/03/09 00:21:42;;;;;;;33.83;21.90;;;10.50;52.60;;;;;;2069890;28;20026;-61
2021/03/09 00:23:05;;;;;;;33.05;21.27;;;10.50;52.50;;;;;;2069294;28;20034;-61
2021/03/09 00:24:26;;;;;;;34.72;21.95;;;10.50;52.50;;;;;;2066233;28;20041;-59
2021/03/09 00:25:46;;;;;;;32.15;20.52;;;10.60;52.60;;;;;;2070153;28;20041;-61
2021/03/09 00:27:09;;;;;;;33.42;20.45;;;10.50;52.50;;;;;;2072461;28;20408;-60
2021/03/09 00:28:30;;;;;;;35.67;21.08;;;10.50;52.50;;;;;;2070470;28;20029;-61
2021/03/09 00:29:51;;;;;;;36.78;20.80;;;10.50;52.50;;;;;;2067030;28;20030;-61
2021/03/09 00:31:12;;;;;;;36.75;21.70;;;10.60;53.10;;;;;;2069541;28;20026;-61
2021/03/09 00:32:33;;;;;;;36.50;22.10;;;10.50;52.50;;;;;;2068912;28;20026;-60
2021/03/09 00:33:53;;;;;;;33.47;21.70;;;10.50;52.60;;;;;;2071676;28;20117;-61
2021/03/09 00:35:15;;;;;;;36.85;21.77;;;10.50;52.60;;;;;;2066455;28;20038;-61
2021/03/09 00:36:35;;;;;;;36.90;22.60;;;10.50;52.60;;;;;;2069327;28;20077;-61
2021/03/09 00:37:56;;;;;;;35.67;22.23;;;10.50;52.50;;;;;;2068052;28;20034;-61
2021/03/09 00:39:17;;;;;;;33.42;21.33;;;10.50;52.50;;;;;;2070806;28;20053;-61
2021/03/09 00:40:38;;;;;;;33.28;21.13;;;10.50;52.50;;;;;;2073959;28;20061;-61
2021/03/09 00:41:59;;;;;;;33.65;20.60;;;10.50;52.50;;;;;;2070674;28;20637;-61
2021/03/09 00:43:20;;;;;;;30.83;19.65;;;10.50;52.60;;;;;;2071200;28;20030;-62
2021/03/09 00:44:41;;;;;;;36.97;21.77;;;10.50;52.60;;;;;;2069981;28;20026;-61
2021/03/09 00:46:02;;;;;;;32.80;20.05;;;10.50;52.60;;;;;;2066932;28;20094;-60
2021/03/09 00:47:23;;;;;;;33.08;20.20;;;10.50;52.60;;;;;;2071272;28;20033;-61
2021/03/09 00:48:43;;;;;;;33.78;19.73;;;10.50;52.60;;;;;;2068682;28;20109;-61
2021/03/09 00:50:05;;;;;;;35.53;20.77;;;10.50;52.50;;;;;;2061683;28;20049;-61
2021/03/09 00:51:26;;;;;;;34.72;20.55;;;10.50;52.60;;;;;;2069185;28;20036;-61
2021/03/09 00:52:47;;;;;;;31.75;20.27;;;10.50;52.80;;;;;;2066724;28;20030;-61
2021/03/09 00:54:08;;;;;;;30.83;19.17;;;10.50;52.60;;;;;;2064466;28;20705;-61
2021/03/09 00:55:29;;;;;;;32.22;19.70;;;10.40;52.60;;;;;;2068392;28;20065;-61
2021/03/09 00:56:50;;;;;;;32.03;20.42;;;10.40;52.60;;;;;;2069572;28;20114;-61
2021/03/09 00:58:11;;;;;;;32.88;20.17;;;10.40;52.70;;;;;;2072113;28;20037;-60
2021/03/09 00:59:32;;;;;;;32.92;19.73;;;10.40;52.80;;;;;;2070949;28;20092;-62
2021/03/09 01:00:53;;;;;;;31.27;19.95;;;10.40;52.80;;;;;;2071084;28;20462;-60
2021/03/09 01:02:13;;;;;;;31.05;18.77;;;10.40;52.90;;;;;;2074495;28;20107;-61
2021/03/09 01:03:34;;;;;;;32.30;18.80;;;10.40;53.00;;;;;;2066203;28;20034;-61
2021/03/09 01:04:55;;;;;;;30.45;19.67;;;10.40;52.90;;;;;;2066323;28;20058;-61
2021/03/09 01:06:16;;;;;;;30.35;19.40;;;10.40;52.90;;;;;;2071737;28;20088;-61
2021/03/09 01:07:37;;;;;;;32.80;20.02;;;10.40;53.00;;;;;;2061963;28;20023;-61
2021/03/09 01:08:58;;;;;;;32.70;19.52;;;10.40;53.10;;;;;;2066222;28;20022;-62
2021/03/09 01:10:21;;;;;;;31.50;18.20;;;10.40;53.10;;;;;;2060828;28;20470;-60
2021/03/09 01:11:42;;;;;;;31.10;18.98;;;10.40;53.10;;;;;;2064930;28;20033;-60
2021/03/09 01:13:03;;;;;;;28.85;18.80;;;10.40;53.10;;;;;;2068582;28;20038;-59
2021/03/09 01:14:24;;;;;;;29.48;18.75;;;10.40;53.10;;;;;;2074188;28;20034;-62
2021/03/09 01:15:45;;;;;;;29.55;18.55;;;10.40;53.10;;;;;;2070802;28;20500;-60
2021/03/09 01:17:06;;;;;;;31.83;19.50;;;10.40;53.20;;;;;;2069204;28;20034;-60
2021/03/09 01:18:26;;;;;;;28.90;18.80;;;10.40;53.20;;;;;;2073640;28;20606;-60
2021/03/09 01:19:47;;;;;;;35.13;20.27;;;10.40;53.20;;;;;;2067625;28;20117;-60
2021/03/09 01:21:08;;;;;;;33.35;20.50;;;10.40;53.20;;;;;;2070795;28;20120;-60
2021/03/09 01:22:29;;;;;;;31.20;20.40;;;10.30;53.20;;;;;;2074192;28;20102;-59
2021/03/09 01:23:50;;;;;;;34.00;20.13;;;10.30;53.20;;;;;;2072815;28;20045;-60
2021/03/09 01:25:11;;;;;;;35.45;20.45;;;10.30;53.40;;;;;;2068741;28;20046;-60
2021/03/09 01:26:32;;;;;;;31.27;19.70;;;10.30;53.50;;;;;;2069385;28;20040;-60
2021/03/09 01:27:53;;;;;;;33.95;20.08;;;10.30;53.50;;;;;;2071496;28;20413;-60
2021/03/09 01:29:14;;;;;;;32.35;21.40;;;10.30;53.50;;;;;;2067342;28;20141;-60
2021/03/09 01:30:35;;;;;;;31.17;20.13;;;10.30;53.50;;;;;;2070051;28;20026;-59
2021/03/09 01:31:56;;;;;;;32.05;19.42;;;10.30;53.50;;;;;;2068372;28;20038;-60
2021/03/09 01:33:17;;;;;;;34.88;19.35;;;10.30;53.60;;;;;;2067332;28;20026;-61
2021/03/09 01:34:38;;;;;;;31.10;19.27;;;10.30;53.60;;;;;;2068897;28;20036;-59
2021/03/09 01:35:59;;;;;;;32.72;20.40;;;10.30;53.50;;;;;;2071655;28;20057;-59
2021/03/09 01:37:20;;;;;;;31.48;18.92;;;10.30;53.70;;;;;;2069361;28;20030;-61
2021/03/09 01:38:40;;;;;;;31.40;19.30;;;10.30;53.80;;;;;;2073294;28;20026;-59
2021/03/09 01:40:05;;;;;;;33.22;19.92;;;10.30;53.90;;;;;;2066972;28;20117;-60
2021/03/09 01:41:26;;;;;;;36.33;20.85;;;10.30;53.90;;;;;;2072737;28;20060;-59
2021/03/09 01:42:47;;;;;;;32.97;20.65;;;10.30;53.90;;;;;;2070173;28;20462;-59
2021/03/09 01:44:08;;;;;;;35.40;20.27;;;10.30;53.90;;;;;;2066542;28;20350;-60
2021/03/09 01:45:29;;;;;;;32.47;19.90;;;10.30;53.90;;;;;;2070027;28;20030;-61
2021/03/09 01:46:50;;;;;;;33.38;21.15;;;10.30;53.90;;;;;;2073053;28;20033;-59
2021/03/09 01:48:13;;;;;;;31.02;19.10;;;10.30;53.90;;;;;;2073836;28;20057;-61
2021/03/09 01:49:37;;;;;;;32.97;19.60;;;10.20;53.90;;;;;;2066354;28;20100;-59
2021/03/09 01:50:58;;;;;;;34.45;21.20;;;10.20;54.00;;;;;;2068132;28;20030;-61
2021/03/09 01:52:19;;;;;;;29.95;19.50;;;10.20;54.00;;;;;;2065391;28;20030;-60
2021/03/09 01:53:40;;;;;;;35.60;21.10;;;10.20;54.10;;;;;;2066845;28;20030;-60
2021/03/09 01:55:01;;;;;;;33.25;20.15;;;10.20;54.10;;;;;;2067906;28;20034;-61
2021/03/09 01:56:22;;;;;;;30.52;18.67;;;10.20;54.30;;;;;;2069853;28;20094;-61
2021/03/09 01:57:44;;;;;;;31.88;19.60;;;10.20;54.40;;;;;;2067766;28;20026;-59
2021/03/09 01:59:06;;;;;;;31.73;21.30;;;10.20;54.30;;;;;;2066418;28;20030;-60
2021/03/09 02:00:27;;;;;;;30.10;20.02;;;10.20;54.40;;;;;;2069808;28;20122;-60
2021/03/09 02:01:49;;;;;;;31.77;19.20;;;10.20;54.50;;;;;;2069787;28;20057;-60
2021/03/09 02:03:10;;;;;;;31.17;19.90;;;10.20;54.50;;;;;;2066608;28;20030;-60
2021/03/09 02:04:31;;;;;;;35.30;20.38;;;10.20;54.50;;;;;;2069018;28;20427;-60
2021/03/09 02:05:52;;;;;;;33.80;20.15;;;10.20;54.50;;;;;;2071171;28;20117;-60
2021/03/09 02:07:13;;;;;;;30.30;19.75;;;10.10;54.50;;;;;;2068030;28;20038;-61
2021/03/09 02:08:34;;;;;;;32.85;20.15;;;10.20;54.60;;;;;;2071271;28;20010;-61
2021/03/09 02:09:55;;;;;;;34.67;21.10;;;10.20;54.60;;;;;;2069374;28;20034;-61
2021/03/09 02:11:31;;;;;;;34.90;20.02;;;10.10;54.50;;;;;;2067750;28;20027;-61
2021/03/09 02:13:27;;;;;;;34.08;21.33;;;10.10;54.60;;;;;;2068550;28;20038;-60
2021/03/09 02:15:03;;;;;;;32.90;19.45;;;10.10;54.70;;;;;;2067660;28;20034;-59
2021/03/09 02:16:38;;;;;;;35.67;21.10;;;10.10;54.70;;;;;;2071324;28;20095;-60
2021/03/09 02:18:27;;;;;;;29.73;18.80;;;10.10;54.70;;;;;;2070463;28;20069;-60
2021/03/09 02:20:07;;;;;;;34.00;19.70;;;10.10;54.90;;;;;;2070893;28;20027;-59
2021/03/09 02:21:53;;;;;;;34.90;20.08;;;10.10;54.40;;;;;;2068752;28;20675;-61
2021/03/09 02:23:34;;;;;;;34.47;21.13;;;10.10;54.60;;;;;;2065994;28;20038;-61
2021/03/09 02:25:36;;;;;;;33.95;20.23;;;10.10;54.70;;;;;;2067425;28;20121;-60
2021/03/09 02:27:16;;;;;;;33.63;20.02;;;10.10;54.60;;;;;;2067854;28;20069;-60
2021/03/09 02:28:42;;;;;;;37.83;22.02;;;10.10;54.10;;;;;;2072488;28;20026;-61
2021/03/09 02:30:13;;;;;;;35.42;21.33;;;10.10;54.40;;;;;;2069198;28;20593;-60
2021/03/09 02:31:36;;;;;;;32.17;20.45;;;10.00;54.50;;;;;;2069195;28;20101;-59
2021/03/09 02:33:21;;;;;;;37.75;21.85;;;10.00;54.40;;;;;;2071658;28;20030;-59
2021/03/09 02:35:06;;;;;;;33.78;20.17;;;10.00;54.60;;;;;;2069262;28;20484;-59
2021/03/09 02:36:29;;;;;;;34.80;21.50;;;10.00;54.50;;;;;;2068327;28;20092;-59
2021/03/09 02:37:54;;;;;;;33.50;20.58;;;10.00;54.40;;;;;;2067288;28;20027;-60
2021/03/09 02:39:16;;;;;;;35.78;21.48;;;10.00;54.40;;;;;;2066634;28;20137;-61
2021/03/09 02:40:38;;;;;;;41.53;24.48;;;10.00;54.40;;;;;;2071595;28;20045;-61
2021/03/09 02:42:03;;;;;;;39.72;24.15;;;10.00;54.60;;;;;;2069879;28;20019;-61
2021/03/09 02:43:27;;;;;;;38.72;23.35;;;9.90;54.80;;;;;;2070591;28;20021;-61
2021/03/09 02:44:54;;;;;;;39.13;23.65;;;9.90;54.80;;;;;;2067865;28;20386;-60
2021/03/09 02:46:16;;;;;;;39.72;23.50;;;9.90;54.70;;;;;;2066706;28;20042;-60
2021/03/09 02:47:37;;;;;;;35.45;22.73;;;9.90;54.60;;;;;;2067362;28;20061;-61
2021/03/09 02:48:59;;;;;;;36.63;22.90;;;9.90;54.60;;;;;;2072692;28;20037;-61
2021/03/09 02:50:24;;;;;;;37.92;23.58;;;9.80;54.60;;;;;;2067409;28;20513;-61
2021/03/09 02:51:45;;;;;;;40.45;24.13;;;9.80;54.80;;;;;;2069540;28;20037;-61
2021/03/09 02:53:11;;;;;;;40.35;25.52;;;9.80;54.80;;;;;;2068299;28;20118;-61
2021/03/09 02:54:35;;;;;;;37.13;22.92;;;9.80;55.00;;;;;;2068977;28;20018;-61
2021/03/09 02:55:59;;;;;;;41.13;24.80;;;9.80;55.00;;;;;;2072233;28;20022;-61
2021/03/09 02:57:22;;;;;;;39.03;24.15;;;9.80;55.00;;;;;;2067034;28;20042;-59
2021/03/09 02:58:47;;;;;;;43.30;25.73;;;9.80;55.10;;;;;;2069375;28;20472;-61
2021/03/09 03:00:10;;;;;;;40.20;25.83;;;9.70;55.00;;;;;;2069154;28;20042;-58
2021/03/09 03:01:31;;;;;;;42.17;25.48;;;9.70;55.00;;;;;;2065892;28;20074;-61
2021/03/09 03:02:52;;;;;;;41.28;25.38;;;9.70;54.90;;;;;;2070417;28;20038;-61
2021/03/09 03:04:17;;;;;;;42.22;26.05;;;9.70;55.00;;;;;;2071178;28;20034;-61
2021/03/09 03:05:39;;;;;;;42.42;26.08;;;9.70;55.20;;;;;;2068217;28;20040;-59
2021/03/09 03:07:01;;;;;;;47.08;27.30;;;9.70;55.20;;;;;;2070944;28;20068;-61
2021/03/09 03:08:24;;;;;;;46.33;27.00;;;9.70;55.20;;;;;;2072123;28;20060;-61
2021/03/09 03:09:46;;;;;;;43.17;25.58;;;9.60;55.20;;;;;;2068005;28;20461;-60
2021/03/09 03:11:08;;;;;;;43.92;27.13;;;9.60;55.20;;;;;;2067690;28;20030;-60
2021/03/09 03:12:31;;;;;;;38.80;23.88;;;9.60;55.30;;;;;;2069385;28;20035;-60
2021/03/09 03:13:54;;;;;;;39.70;24.60;;;9.60;55.30;;;;;;2071944;28;20064;-60
2021/03/09 03:15:15;;;;;;;42.03;25.55;;;9.60;55.40;;;;;;2066193;28;20455;-61
2021/03/09 03:16:38;;;;;;;44.05;25.65;;;9.60;55.50;;;;;;2066030;28;20077;-61
2021/03/09 03:18:00;;;;;;;43.85;26.05;;;9.60;55.60;;;;;;2069189;28;20371;-61
2021/03/09 03:19:22;;;;;;;40.42;24.30;;;9.50;55.70;;;;;;2067819;28;20030;-60
2021/03/09 03:20:44;;;;;;;45.15;26.42;;;9.50;55.70;;;;;;2071885;28;20032;-61
2021/03/09 03:22:05;;;;;;;44.03;25.85;;;9.50;55.70;;;;;;2071013;28;20428;-61
2021/03/09 03:23:27;;;;;;;41.03;25.42;;;9.50;55.80;;;;;;2071456;28;20061;-61
2021/03/09 03:24:50;;;;;;;40.45;25.55;;;9.50;55.90;;;;;;2070941;28;20057;-61
2021/03/09 03:26:11;;;;;;;42.85;26.17;;;9.50;56.00;;;;;;2072917;28;20033;-60
2021/03/09 03:27:34;;;;;;;40.47;25.63;;;9.50;55.90;;;;;;2063890;28;20025;-60
2021/03/09 03:28:56;;;;;;;43.63;26.02;;;9.50;56.10;;;;;;2065325;28;20033;-61
2021/03/09 03:30:18;;;;;;;39.42;25.05;;;9.50;56.00;;;;;;2067197;28;20069;-61
2021/03/09 03:31:39;;;;;;;39.55;24.00;;;9.50;56.00;;;;;;2069880;28;20038;-61
2021/03/09 03:33:00;;;;;;;42.60;26.20;;;9.50;56.10;;;;;;2069614;28;20619;-61
2021/03/09 03:34:21;;;;;;;44.40;25.88;;;9.40;56.00;;;;;;2067631;28;20034;-60
2021/03/09 03:35:43;;;;;;;40.67;25.23;;;9.50;56.00;;;;;;2067956;28;20094;-60
2021/03/09 03:37:04;;;;;;;44.72;26.15;;;9.40;56.00;;;;;;2069123;28;20030;-61
2021/03/09 03:38:25;;;;;;;43.38;26.05;;;9.40;56.10;;;;;;2071801;28;20018;-60
2021/03/09 03:39:46;;;;;;;43.38;25.60;;;9.40;56.00;;;;;;2070730;28;20030;-60
2021/03/09 03:41:11;;;;;;;40.78;24.60;;;9.40;56.10;;;;;;2066064;28;20436;-60
2021/03/09 03:42:33;;;;;;;41.80;25.40;;;9.50;56.20;;;;;;2068474;28;20037;-61
2021/03/09 03:43:54;;;;;;;42.72;25.38;;;9.40;56.10;;;;;;2062831;28;20638;-61
2021/03/09 03:45:18;;;;;;;43.33;25.55;;;9.40;56.10;;;;;;2068178;28;20040;-60
2021/03/09 03:46:39;;;;;;;40.33;25.50;;;9.40;56.30;;;;;;2068292;28;20097;-60
2021/03/09 03:48:00;;;;;;;45.17;26.58;;;9.40;56.30;;;;;;2072788;28;20093;-60
2021/03/09 03:49:21;;;;;;;42.30;25.55;;;9.40;56.30;;;;;;2067486;28;20117;-61
2021/03/09 03:50:42;;;;;;;43.88;26.65;;;9.30;56.20;;;;;;2061692;28;20030;-61
2021/03/09 03:52:38;;;;;;;46.88;27.42;;;9.30;56.30;;;;;;2068272;28;20453;-61
2021/03/09 03:54:30;;;;;;;44.28;26.48;;;9.30;56.80;;;;;;2050292;28;20042;-61
2021/03/09 03:56:08;;;;;;;41.40;25.30;;;9.40;56.60;;;;;;2067824;28;20066;-60
2021/03/09 03:57:41;;;;;;;46.45;24.77;;;9.30;56.60;;;;;;2068547;28;20258;-61
2021/03/09 03:59:16;;;;;;;42.83;27.17;;;9.30;56.50;;;;;;2068443;28;20038;-60
2021/03/09 04:00:38;;;;;;;45.45;27.17;;;9.30;56.80;;;;;;2069710;28;20038;-61
2021/03/09 04:02:08;;;;;;;44.40;26.83;;;9.30;56.40;;;;;;2072776;28;20061;-60
2021/03/09 04:03:31;;;;;;;41.20;25.75;;;9.30;57.30;;;;;;2069362;28;20022;-61
2021/03/09 04:04:54;;;;;;;42.88;27.58;;;9.30;56.60;;;;;;2066543;28;20038;-60
2021/03/09 04:06:17;;;;;;;41.20;25.48;;;9.30;56.70;;;;;;2070818;28;20376;-61
2021/03/09 04:07:39;;;;;;;44.88;26.60;;;9.30;56.60;;;;;;2058154;28;20110;-61
2021/03/09 04:09:03;;;;;;;48.90;28.33;;;9.20;56.60;;;;;;2065146;28;20026;-60
2021/03/09 04:10:25;;;;;;;47.85;28.58;;;9.20;56.70;;;;;;2067398;28;20026;-60
2021/03/09 04:11:47;;;;;;;41.65;26.05;;;9.20;56.90;;;;;;2064671;28;20113;-60
2021/03/09 04:13:09;;;;;;;45.97;26.67;;;9.20;56.70;;;;;;2065018;28;20031;-60
2021/03/09 04:14:32;;;;;;;48.05;28.13;;;9.20;56.70;;;;;;2069891;28;20067;-62
2021/03/09 04:15:55;;;;;;;46.42;27.80;;;9.20;57.00;;;;;;2067534;28;20050;-60
2021/03/09 04:17:18;;;;;;;47.08;29.25;;;9.20;56.90;;;;;;2066020;28;20034;-60
2021/03/09 04:18:40;;;;;;;46.20;28.55;;;9.20;57.00;;;;;;2067202;28;20033;-60
2021/03/09 04:20:04;;;;;;;42.17;26.10;;;9.10;56.90;;;;;;2067995;28;20026;-61
2021/03/09 04:21:26;;;;;;;42.35;27.00;;;9.10;56.90;;;;;;2069961;28;20042;-61
2021/03/09 04:22:48;;;;;;;53.30;30.17;;;9.10;57.00;;;;;;2067660;28;20045;-60
2021/03/09 04:24:12;;;;;;;45.80;28.33;;;9.10;57.10;;;;;;2065247;28;20565;-60
2021/03/09 04:25:34;;;;;;;44.38;27.83;;;9.10;57.20;;;;;;2068047;28;20034;-60
2021/03/09 04:26:55;;;;;;;42.65;26.27;;;9.10;57.10;;;;;;2068186;28;20369;-61
2021/03/09 04:28:17;;;;;;;48.22;28.65;;;9.10;57.20;;;;;;2067888;28;20053;-61
2021/03/09 04:29:39;;;;;;;45.65;28.85;;;9.10;57.20;;;;;;2069077;28;20055;-60
2021/03/09 04:31:00;;;;;;;49.05;29.90;;;9.10;57.30;;;;;;2069191;28;20110;-60
2021/03/09 04:32:23;;;;;;;48.28;27.83;;;9.10;57.60;;;;;;2069280;28;20369;-60
2021/03/09 04:33:46;;;;;;;41.25;26.17;;;9.00;57.40;;;;;;2069518;28;20022;-61
2021/03/09 04:35:07;;;;;;;46.42;28.70;;;9.00;57.50;;;;;;2066000;28;20038;-60
2021/03/09 04:36:30;;;;;;;47.95;28.27;;;9.00;57.80;;;;;;2069925;28;20036;-60
2021/03/09 04:37:51;;;;;;;43.80;26.48;;;8.90;57.70;;;;;;2072578;28;20018;-60
2021/03/09 04:39:13;;;;;;;45.20;28.13;;;8.90;57.60;;;;;;2071395;28;20322;-60
2021/03/09 04:40:35;;;;;;;42.50;27.65;;;8.90;57.90;;;;;;2074584;28;20022;-60
2021/03/09 04:41:56;;;;;;;41.25;26.25;;;8.90;58.10;;;;;;2073126;28;20026;-61
2021/03/09 04:43:18;;;;;;;44.47;27.08;;;8.80;58.00;;;;;;2071409;28;20049;-60
2021/03/09 04:44:39;;;;;;;47.35;27.17;;;8.80;58.20;;;;;;2070386;28;20025;-60
2021/03/09 04:46:01;;;;;;;46.67;27.70;;;8.80;57.90;;;;;;2070534;28;20069;-60
2021/03/09 04:47:23;;;;;;;44.38;27.80;;;8.80;58.20;;;;;;2073505;28;20026;-61
2021/03/09 04:48:44;;;;;;;44.70;27.13;;;8.80;58.20;;;;;;2068167;28;20018;-61
2021/03/09 04:50:08;;;;;;;41.78;26.60;;;8.80;58.10;;;;;;2065996;28;20034;-60
2021/03/09 04:51:29;;;;;;;46.50;27.80;;;8.70;58.10;;;;;;2069052;28;20018;-61
2021/03/09 04:52:50;;;;;;;43.10;27.02;;;8.70;58.30;;;;;;2069022;28;20030;-60
2021/03/09 04:54:11;;;;;;;40.85;26.42;;;8.70;58.40;;;;;;2068116;28;20040;-61
2021/03/09 04:55:32;;;;;;;40.80;26.80;;;8.70;58.20;;;;;;2069115;28;20121;-60
2021/03/09 04:56:53;;;;;;;44.28;27.40;;;8.70;58.20;;;;;;2073244;28;20030;-61
2021/03/09 04:58:14;;;;;;;38.85;25.65;;;8.70;58.50;;;;;;2066261;28;20040;-60
2021/03/09 04:59:35;;;;;;;39.90;25.15;;;8.70;58.40;;;;;;2069958;28;20037;-60
2021/03/09 05:00:56;;;;;;;40.95;26.05;;;8.70;58.30;;;;;;2067701;28;20037;-60
2021/03/09 05:02:17;;;;;;;39.35;25.15;;;8.60;58.30;;;;;;2068316;28;20034;-60
2021/03/09 05:03:38;;;;;;;37.58;24.50;;;8.60;58.20;;;;;;2070903;28;20022;-61
2021/03/09 05:04:59;;;;;;;37.28;24.48;;;8.60;58.30;;;;;;2068827;28;20096;-60
2021/03/09 05:06:20;;;;;;;40.97;24.58;;;8.60;58.40;;;;;;2067946;28;20037;-60
2021/03/09 05:07:41;;;;;;;37.88;24.25;;;8.60;58.40;;;;;;2068142;28;20450;-60
2021/03/09 05:09:03;;;;;;;38.45;24.75;;;8.60;58.30;;;;;;2069586;28;20039;-60
2021/03/09 05:10:24;;;;;;;37.85;25.17;;;8.60;58.40;;;;;;2073815;28;20022;-60
2021/03/09 05:11:45;;;;;;;36.13;25.50;;;8.60;58.50;;;;;;2071393;28;20539;-60
2021/03/09 05:13:06;;;;;;;36.22;24.50;;;8.50;58.50;;;;;;2068657;28;20033;-60
2021/03/09 05:14:27;;;;;;;37.13;24.50;;;8.50;58.40;;;;;;2073718;28;20645;-61
2021/03/09 05:15:48;;;;;;;40.58;25.35;;;8.50;58.60;;;;;;2059318;28;20043;-60
2021/03/09 05:17:08;;;;;;;36.88;23.73;;;8.50;58.60;;;;;;2064109;28;20046;-60
2021/03/09 05:18:29;;;;;;;38.45;24.52;;;8.50;58.70;;;;;;2068540;28;20040;-61
2021/03/09 05:19:50;;;;;;;35.30;23.95;;;8.50;58.70;;;;;;2069162;28;20062;-60
2021/03/09 05:21:11;;;;;;;34.92;22.73;;;8.50;58.60;;;;;;2067952;28;20042;-60
2021/03/09 05:22:32;;;;;;;34.22;23.35;;;8.50;58.60;;;;;;2072711;28;20026;-61
2021/03/09 05:23:53;;;;;;;40.20;25.80;;;8.50;58.70;;;;;;2069951;28;20513;-59
2021/03/09 05:25:15;;;;;;;41.50;26.83;;;8.50;58.80;;;;;;2067157;28;20105;-60
2021/03/09 05:26:36;;;;;;;41.42;25.25;;;8.50;58.90;;;;;;2069217;28;20045;-60
2021/03/09 05:27:57;;;;;;;40.28;25.50;;;8.50;58.90;;;;;;2069057;28;20031;-60
2021/03/09 05:29:18;;;;;;;37.05;23.98;;;8.50;59.10;;;;;;2068808;28;20026;-60
2021/03/09 05:30:39;;;;;;;37.10;24.30;;;8.50;58.90;;;;;;2070983;28;20033;-60
2021/03/09 05:32:00;;;;;;;39.97;25.27;;;8.50;59.10;;;;;;2072371;28;20524;-59
2021/03/09 05:33:21;;;;;;;39.10;26.08;;;8.40;59.10;;;;;;2072365;28;20022;-60
2021/03/09 05:34:42;;;;;;;37.83;24.60;;;8.40;59.20;;;;;;2072321;28;20033;-60
2021/03/09 05:36:03;;;;;;;38.10;24.85;;;8.40;59.00;;;;;;2066407;28;20034;-60
2021/03/09 05:37:24;;;;;;;38.72;24.90;;;8.40;59.20;;;;;;2072266;28;20050;-60
2021/03/09 05:38:44;;;;;;;38.63;25.23;;;8.40;59.10;;;;;;2065170;28;20034;-60
2021/03/09 05:40:06;;;;;;;41.67;26.27;;;8.40;59.30;;;;;;2070475;28;20062;-60
2021/03/09 05:41:27;;;;;;;38.30;24.80;;;8.40;59.20;;;;;;2068008;28;20545;-59
2021/03/09 05:42:50;;;;;;;36.13;24.77;;;8.40;59.00;;;;;;2067954;28;20028;-60
2021/03/09 05:44:11;;;;;;;40.53;25.63;;;8.40;59.10;;;;;;2066126;28;20060;-60
2021/03/09 05:45:33;;;;;;;39.13;25.25;;;8.40;59.10;;;;;;2073270;28;20062;-60
2021/03/09 05:46:54;;;;;;;38.45;25.95;;;8.40;59.30;;;;;;2069824;28;20093;-60
2021/03/09 05:48:15;;;;;;;38.42;25.85;;;8.40;59.20;;;;;;2072254;28;20026;-60
2021/03/09 05:49:35;;;;;;;39.30;25.20;;;8.40;59.40;;;;;;2070503;28;20026;-60
2021/03/09 05:50:57;;;;;;;38.25;25.13;;;8.30;59.40;;;;;;2068067;28;20121;-61
2021/03/09 05:52:18;;;;;;;42.33;26.42;;;8.40;59.40;;;;;;2066887;28;20026;-60
2021/03/09 05:53:39;;;;;;;42.13;27.70;;;8.30;59.30;;;;;;2069043;28;20068;-60
2021/03/09 05:55:01;;;;;;;39.33;25.45;;;8.40;59.90;;;;;;2067660;28;20437;-60
2021/03/09 05:56:22;;;;;;;37.63;23.60;;;8.30;59.40;;;;;;2066524;28;20042;-61
2021/03/09 05:57:43;;;;;;;42.05;25.83;;;8.30;59.50;;;;;;2068735;28;20034;-60
2021/03/09 05:59:04;;;;;;;40.65;25.70;;;8.30;59.40;;;;;;2064070;28;20030;-59
2021/03/09 06:00:25;;;;;;;38.17;24.90;;;8.30;59.50;;;;;;2070306;28;20460;-60
2021/03/09 06:01:47;;;;;;;42.50;26.55;;;8.30;59.50;;;;;;2072611;28;20034;-60
2021/03/09 06:03:08;;;;;;;42.05;26.20;;;8.30;59.60;;;;;;2072419;28;20056;-60
2021/03/09 06:04:32;;;;;;;38.20;24.85;;;8.30;59.60;;;;;;2069289;28;20504;-60
2021/03/09 06:05:54;;;;;;;41.35;25.80;;;8.30;59.70;;;;;;2069477;28;20085;-60
2021/03/09 06:07:18;;;;;;;37.00;24.20;;;8.30;59.70;;;;;;2065095;28;20085;-60
2021/03/09 06:08:39;;;;;;;39.45;26.83;;;8.30;59.80;;;;;;2067701;28;20131;-61
2021/03/09 06:10:00;;;;;;;38.42;25.35;;;8.30;59.70;;;;;;2066858;28;20485;-60
2021/03/09 06:11:21;;;;;;;38.63;26.00;;;8.30;59.70;;;;;;2070037;28;20413;-60
2021/03/09 06:12:42;;;;;;;41.42;26.20;;;8.20;59.80;;;;;;2071258;28;20109;-59
2021/03/09 06:14:15;;;;;;;37.33;24.38;;;8.30;59.90;;;;;;2070616;28;20026;-60
2021/03/09 06:15:53;;;;;;;36.88;25.08;;;8.20;60.60;;;;;;2070712;28;20069;-60
2021/03/09 06:17:22;;;;;;;36.13;24.25;;;8.20;60.60;;;;;;2068870;28;20061;-59
2021/03/09 06:18:56;;;;;;;35.20;21.63;;;8.30;60.00;;;;;;2068844;28;20084;-60
2021/03/09 06:20:17;;;;;;;41.92;26.70;;;8.20;60.60;;;;;;2066927;28;20030;-59
2021/03/09 06:21:38;;;;;;;38.17;25.52;;;8.20;59.90;;;;;;2067611;28;20033;-60
2021/03/09 06:23:00;;;;;;;42.05;27.65;;;8.20;60.00;;;;;;2065244;28;20034;-60
2021/03/09 06:24:22;;;;;;;35.75;24.42;;;8.20;60.20;;;;;;2067851;28;20100;-59
2021/03/09 06:25:43;;;;;;;37.28;24.63;;;8.20;60.00;;;;;;2069431;28;20083;-60
2021/03/09 06:27:24;;;;;;;40.00;24.33;;;8.20;60.20;;;;;;2068760;28;20081;-60
2021/03/09 06:28:44;;;;;;;39.17;25.25;;;8.20;60.80;;;;;;2073334;28;20536;-60
2021/03/09 06:30:10;;;;;;;40.63;26.38;;;8.20;60.20;;;;;;2068798;28;20045;-60
2021/03/09 06:31:31;;;;;;;38.38;26.05;;;8.20;60.80;;;;;;2072251;28;20034;-59
2021/03/09 06:32:52;;;;;;;37.72;24.63;;;8.10;60.30;;;;;;2070125;28;20034;-60
2021/03/09 06:34:33;;;;;;;38.42;24.65;;;8.20;60.60;;;;;;2071705;28;20034;-59
2021/03/09 06:35:55;;;;;;;36.88;24.20;;;8.10;61.20;;;;;;2071076;28;20022;-58
2021/03/09 06:37:23;;;;;;;42.17;26.38;;;8.20;60.30;;;;;;2072183;28;20033;-58
2021/03/09 06:38:53;;;;;;;42.42;27.70;;;8.10;60.60;;;;;;2069139;28;20022;-61
2021/03/09 06:40:14;;;;;;;;;;;8.10;60.80;;;;;;2072404;28;20040;-61
2021/03/09 06:41:35;;;;;;;35.10;22.63;;;8.20;62.30;;;;;;2069246;28;19917;-61
2021/03/09 06:42:56;;;;;;;36.45;24.85;;;8.20;61.20;;;;;;2068877;28;20476;-58
2021/03/09 06:44:23;;;;;;;38.35;25.05;;;8.20;60.40;;;;;;2066809;28;20544;-61
2021/03/09 06:45:44;;;;;;;35.47;23.83;;;8.20;60.90;;;;;;2068605;28;20041;-60
2021/03/09 06:47:06;;;;;;;43.17;27.02;;;8.20;60.60;;;;;;2070877;28;20120;-58
2021/03/09 06:48:27;;;;;;;39.13;25.23;;;8.20;60.90;;;;;;2068393;28;20076;-61
2021/03/09 06:49:50;;;;;;;39.90;25.35;;;8.10;60.80;;;;;;2072509;28;20684;-61
2021/03/09 06:51:43;;;;;;;38.28;25.73;;;8.10;61.00;;;;;;2062303;28;20038;-61
2021/03/09 06:53:04;;;;;;;34.53;22.35;;;8.20;61.70;;;;;;2038991;28;20185;-60
2021/03/09 06:54:25;;;;;;;38.55;23.80;;;8.10;60.70;;;;;;2067449;28;20025;-60
2021/03/09 06:55:46;;;;;;;37.08;23.92;;;8.20;60.70;;;;;;2070362;28;20041;-60
2021/03/09 06:57:09;;;;;;;36.53;25.27;;;8.10;60.50;;;;;;2069535;28;20240;-60
2021/03/09 06:58:32;;;;;;;35.97;24.30;;;8.10;60.90;;;;;;2070941;28;20044;-61
2021/03/09 06:59:54;;;;;;;41.00;25.77;;;8.20;60.90;;;;;;2071404;28;20041;-60
2021/03/09 07:01:15;;;;;;;40.88;26.88;;;8.20;61.20;;;;;;2071197;28;20360;-61
2021/03/09 07:02:37;;;;;;;37.40;25.08;;;8.20;61.20;;;;;;2068988;28;20046;-60
2021/03/09 07:03:58;;;;;;;39.22;25.98;;;8.20;61.10;;;;;;2070765;28;20542;-60
2021/03/09 07:05:18;;;;;;;37.15;24.35;;;8.10;61.20;;;;;;2071441;28;20045;-60